Flight Track Log - Related Links

Times and Time Zones

All times are in EDT time to prevent confusion due to time zone crossing. See the CTL18 flight status page for this flight to view local times or setup timezone preferences in your user account.


Time Position Orientation Groundspeed Altitude Reporting Facility
EDT Latitude Longitude Course Direction KTS MPH feet Rate Location/Type
Thu 08:22:00 PM 43.3904 -84.0180 160° South  Level Estimated
Thu 08:23:00 PM 43.3637 -83.9994 153° Southeast  Level FlightAware Approximate
Thu 08:24:00 PM 43.3371 -83.9809 153° Southeast  Level FlightAware Approximate
Thu 08:25:00 PM 43.3085 -83.9689 160° South  Level Estimated
Thu 08:26:00 PM 43.2809 -83.9532 157° South  Level FlightAware Approximate
Thu 08:27:00 PM 43.2533 -83.9375 157° South  Level FlightAware Approximate
Thu 08:28:00 PM 43.2246 -83.9258 163° South  Level Estimated
Thu 08:28:14 PM 43.0128 -83.8231 160° South 194 223 5,000  Level Cleveland Center
Thu 08:29:00 PM 43.1964 -83.9124 161° South  Level FlightAware Approximate
Thu 08:29:40 PM 42.9367 -83.7878 161° South 192 221 5,000  Level Cleveland Center
Thu 08:30:00 PM 43.1682 -83.8990 161° South  Level FlightAware Approximate
Thu 08:30:40 PM 42.8875 -83.7628 160° South 191 220 5,000  Level Cleveland Center
Thu 08:31:00 PM 43.1399 -83.8856 161° South  Level FlightAware Approximate
Thu 08:31:42 PM 42.8400 -83.7375 159° South 190 219 5,000  Level Cleveland Center
Thu 08:32:00 PM 43.1113 -83.8741 160° South  Level Estimated
Thu 08:32:42 PM 42.7800 -83.7233 170° South 194 223 5,000  Level Cleveland Center
Thu 08:33:00 PM 43.0832 -83.8599 160° South  Level FlightAware Approximate
Thu 08:33:44 PM 42.7306 -83.7039 164° South 189 217 5,000  Level Cleveland Center
Thu 08:34:45 PM 42.6767 -83.6900 169° South 192 221 5,000  Level Cleveland Center
Thu 08:35:46 PM 42.6272 -83.6733 166° South 192 221 5,000 -197 Level Cleveland Center
Thu 08:36:47 PM 42.5714 -83.6536 165° South 191 220 4,600 -443 Descending Cleveland Center
Thu 08:37:48 PM 42.5156 -83.6342 166° South 206 237 4,100 -492 Descending Cleveland Center
Thu 08:38:49 PM 42.4619 -83.6172 167° South 194 223 3,600 -492 Descending Cleveland Center
Thu 08:39:50 PM 42.4122 -83.6008 166° South 189 217 3,100 -492 Descending Cleveland Center
Thu 08:40:51 PM 42.3564 -83.5897 172° South 191 220 2,600 -541 Descending Cleveland Center
Thu 08:41:52 PM 42.3044 -83.5761 169° South 182 209 2,000 -492 Descending Cleveland Center
Thu 08:42:53 PM 42.2611 -83.5656 170° South 171 197 1,600 -393 Descending Cleveland Center
Thu 08:44:00 PM 42.2395 -83.5312 160° South  Level Estimated
Thu 08:51:00 PM 42.2393 -83.5310 160° South  Level Estimated
Thu 08:52:00 PM 42.2393 -83.5310 160° South  Level Estimated
Thu 08:53:00 PM 42.2393 -83.5310 160° South  Level Estimated

Login

Don't have an account? Register now (free) for customized features, flight alerts, and more!